Saint Helena Island, SC

7:09 AM EDT on August 29, 2015 (GMT -0400)
Distant Island | | Change Station
CLOSE
Current Station
Personal Weather Station
Location: Beaufort, SC
Elevation: 15 ft
Nearby Weather Stations

Elev 15 ft 32.38 °N, 80.63 °W | Updated 15 seconds ago

Clear
Clear
74.7 °F
Feels Like 73 °F
N
1.1
Wind Variable Wind from East
Gusts 2.5 mph

Today
High -- | Low -- °F
--% Chance of Precip.
Yesterday
High -- | Low -- °F
Precip. -- in
6:55 AM 7:50 PM
Full, 100% visible
Pressure 30.12 in
Visibility 7.0 miles
Clouds Clear
Heat Index 73 °F
Dew Point 72 °F
Humidity 93%
Rainfall 0.00 in
Snow Depth Not available.
UV 0.0 out of 12
Pollen 6.70 out of 12
Air Quality Not available.
Flu Activity Not available.
METAR KARW 291055Z AUTO 00000KT 7SM CLR 23/22 A3012 RMK AO2
Pressure 30.12 in
Visibility 7.0 miles
Clouds Clear
Heat Index 73 °F
Dew Point 72 °F
Humidity 93%
Rainfall 0.00 in
Snow Depth Not available.
UV 0.0 out of 12
Pollen 6.70 out of 12
Air Quality Not available.
Flu Activity Not available.
METAR KARW 291055Z AUTO 00000KT 7SM CLR 23/22 A3012 RMK AO2
Erika has become very unorganized in the face of strong wind shear in the eastern Caribbean Sea. The storm will pass directly over mountainous Hispaniola today, likely weakening it further. If the storm remains intact, it could reach an area favorable for strengthening before moving onto Florida by early next week. Follow the live blog

10-Day Weather Forecast

×

Almanac

Astronomy

Aug. 29, 2015 Rise Set
Actual Time
Civil Twilight
Nautical Twilight
Astronomical Twilight
Moon
Length of Visible Light
Length of Day
Tomorrow will be .
, % of the Moon is Illuminated

Today's Extremes

State Highs State Lows

Community

WunderPhotos

Upload Photos

1,850,651 photos uploaded!

WunderBlogs® & News

Nearby

Air Quality

  Air Quality AQ Index Pollutant
Not available.

Snow Depth

Station Depth Elevation

Earthquake Activity

City Distance Mag. Time & Date
Minimum magnitude displayed is 2.5.

Coastal Water Temperatures

Place Temperature

Stations

Nearby Weather Stations

Station Location Temp. Windchill Dew Point Humidity Wind Precip. Elev Updated Type